Time;durP1;ratioP1;P1;durP2;ratioP2;P2;SDS_P1;SDS_P2;PMS_P1;PMS_P2;Temp;Humidity;BMP_temperature;BMP_pressure;BME280_temperature;BME280_humidity;BME280_pressure;Samples;Min_cycle;Max_cycle;Signal;HPM_P1;HPM_P2
2024/02/19 00:01:29;;;;;;;22.58;4.85;;;7.90;99.90;;;;;;5071656;28;20072;-71
2024/02/19 00:03:55;;;;;;;18.65;4.63;;;7.80;99.90;;;;;;5071607;28;20047;-71
2024/02/19 00:06:22;;;;;;;15.48;3.08;;;7.80;99.90;;;;;;5071894;28;20040;-71
2024/02/19 00:08:50;;;;;;;16.85;4.05;;;7.70;99.90;;;;;;5071785;28;20052;-71
2024/02/19 00:11:16;;;;;;;25.08;4.45;;;7.80;99.90;;;;;;5071465;28;20690;-71
2024/02/19 00:13:43;;;;;;;15.00;4.32;;;7.90;99.90;;;;;;5071100;28;20123;-71
2024/02/19 00:16:09;;;;;;;21.88;5.05;;;7.90;99.90;;;;;;5071456;28;20040;-71
2024/02/19 00:18:35;;;;;;;18.88;3.72;;;7.90;99.90;;;;;;5053518;28;20060;-71
2024/02/19 00:21:01;;;;;;;24.17;4.68;;;7.90;99.90;;;;;;5071447;28;20032;-71
2024/02/19 00:23:27;;;;;;;19.77;2.65;;;8.00;99.90;;;;;;5053759;28;20036;-71
2024/02/19 00:25:53;;;;;;;26.02;4.30;;;8.10;99.90;;;;;;5053797;28;20575;-71
2024/02/19 00:28:18;;;;;;;14.80;3.40;;;8.00;99.90;;;;;;5053557;28;20135;-71
2024/02/19 00:30:44;;;;;;;20.25;3.65;;;8.00;99.90;;;;;;5071229;28;20080;-71
2024/02/19 00:33:10;;;;;;;17.25;4.28;;;8.00;99.90;;;;;;5053484;28;20047;-71
2024/02/19 00:35:35;;;;;;;17.35;3.22;;;7.90;99.90;;;;;;5071492;28;20037;-71
2024/02/19 00:38:01;;;;;;;11.70;2.53;;;8.00;99.90;;;;;;5071373;28;20483;-71
2024/02/19 00:40:27;;;;;;;11.63;2.08;;;8.10;99.90;;;;;;5071334;28;20116;-71
2024/02/19 00:42:52;;;;;;;12.77;2.25;;;7.90;99.90;;;;;;5071332;28;20033;-71
2024/02/19 00:45:18;;;;;;;11.30;2.13;;;7.90;99.90;;;;;;5071288;28;20064;-71
2024/02/19 00:47:44;;;;;;;14.23;3.40;;;8.00;99.90;;;;;;5053230;28;20047;-71
2024/02/19 00:50:10;;;;;;;11.57;2.53;;;8.00;99.90;;;;;;5071050;28;20040;-71
2024/02/19 00:52:40;;;;;;;7.75;1.75;;;8.00;99.90;;;;;;5053245;28;20040;-71
2024/02/19 00:55:06;;;;;;;11.63;1.65;;;8.00;99.90;;;;;;5052853;28;20040;-71
2024/02/19 00:57:32;;;;;;;6.32;1.75;;;7.90;99.90;;;;;;5071281;28;20492;-71
2024/02/19 00:59:58;;;;;;;6.80;1.80;;;8.00;99.90;;;;;;5036360;28;20179;-71
2024/02/19 01:02:24;;;;;;;10.07;1.33;;;7.90;99.90;;;;;;5053161;28;20437;-71
2024/02/19 01:04:53;;;;;;;6.40;1.58;;;7.90;99.90;;;;;;5071268;28;20032;-71
2024/02/19 01:07:21;;;;;;;7.07;0.82;;;7.80;99.90;;;;;;5071312;28;20072;-71
2024/02/19 01:09:47;;;;;;;8.20;1.98;;;7.90;99.90;;;;;;5071085;28;20129;-71
2024/02/19 01:12:14;;;;;;;4.50;0.73;;;7.90;99.90;;;;;;5070864;28;20116;-71
2024/02/19 01:14:40;;;;;;;8.52;0.85;;;7.90;99.90;;;;;;5070885;28;20051;-71
2024/02/19 01:17:08;;;;;;;6.85;0.80;;;7.80;99.90;;;;;;5053507;28;20037;-71
2024/02/19 01:19:34;;;;;;;7.47;1.52;;;7.70;99.90;;;;;;5053036;28;20036;-71
2024/02/19 01:22:00;;;;;;;9.43;1.17;;;7.70;99.90;;;;;;5052800;28;20522;-71
2024/02/19 01:24:26;;;;;;;6.68;1.30;;;7.80;99.90;;;;;;5073495;28;20048;-72
2024/02/19 01:26:51;;;;;;;11.73;2.08;;;7.70;99.90;;;;;;5074584;28;20055;-71
2024/02/19 01:29:18;;;;;;;10.05;1.25;;;7.70;99.90;;;;;;5074785;28;20075;-71
2024/02/19 01:31:45;;;;;;;9.02;0.90;;;7.80;99.90;;;;;;5074633;28;20066;-71
2024/02/19 01:34:11;;;;;;;10.10;1.92;;;7.70;99.90;;;;;;5074449;28;20044;-71
2024/02/19 01:36:36;;;;;;;9.98;1.13;;;7.70;99.90;;;;;;5074470;28;20041;-71
2024/02/19 01:39:02;;;;;;;9.43;1.25;;;7.80;99.90;;;;;;5074403;28;20043;-71
2024/02/19 01:41:28;;;;;;;9.98;0.98;;;7.70;99.90;;;;;;5056348;28;20036;-71
2024/02/19 01:43:54;;;;;;;3.13;1.05;;;7.70;99.90;;;;;;5074543;28;20090;-71
2024/02/19 01:46:20;;;;;;;7.85;0.93;;;7.80;99.90;;;;;;5074473;28;20078;-71
2024/02/19 01:48:46;;;;;;;7.10;0.90;;;7.80;99.90;;;;;;5056408;28;20055;-71
2024/02/19 01:51:15;;;;;;;7.75;1.23;;;7.80;99.90;;;;;;5074193;28;20036;-71
2024/02/19 01:53:42;;;;;;;8.50;1.48;;;7.80;99.90;;;;;;5056255;28;20056;-71
2024/02/19 01:56:08;;;;;;;5.18;0.90;;;7.80;99.90;;;;;;5056219;28;20040;-70
2024/02/19 01:58:35;;;;;;;5.22;0.80;;;7.80;99.90;;;;;;5074269;28;20037;-71
2024/02/19 02:01:03;;;;;;;4.40;0.70;;;7.80;99.90;;;;;;5074095;28;20071;-70
2024/02/19 02:03:30;;;;;;;6.95;0.82;;;7.80;99.90;;;;;;5074074;28;20046;-71
2024/02/19 02:05:56;;;;;;;7.13;0.80;;;7.80;99.90;;;;;;5074059;28;20410;-71
2024/02/19 02:08:22;;;;;;;6.05;1.40;;;7.80;99.90;;;;;;5073919;28;20039;-71
2024/02/19 02:10:47;;;;;;;5.28;0.88;;;8.00;99.90;;;;;;5073593;28;20044;-71
2024/02/19 02:13:13;;;;;;;7.70;2.05;;;7.90;99.90;;;;;;5055821;28;20407;-71
2024/02/19 02:15:39;;;;;;;5.30;0.70;;;7.90;99.90;;;;;;5073796;28;20040;-71
2024/02/19 02:18:04;;;;;;;6.65;1.90;;;7.90;99.90;;;;;;5055646;28;20055;-71
2024/02/19 02:20:31;;;;;;;8.00;0.90;;;7.90;99.90;;;;;;5073459;28;20043;-72
2024/02/19 02:22:58;;;;;;;9.50;1.25;;;8.00;99.90;;;;;;5055661;28;20047;-71
2024/02/19 02:25:23;;;;;;;6.80;1.00;;;7.80;99.90;;;;;;5055587;28;20055;-71
2024/02/19 02:27:49;;;;;;;7.30;1.58;;;8.00;99.90;;;;;;5073659;28;20040;-71
2024/02/19 02:30:15;;;;;;;11.80;1.55;;;8.00;99.90;;;;;;5073500;28;20036;-71
2024/02/19 02:32:40;;;;;;;7.43;1.52;;;8.00;99.90;;;;;;5073339;28;20170;-70
2024/02/19 02:35:06;;;;;;;16.50;2.45;;;8.00;99.90;;;;;;5054590;28;20041;-71
2024/02/19 02:37:32;;;;;;;11.57;1.40;;;8.10;99.90;;;;;;5073376;28;20478;-71
2024/02/19 02:39:57;;;;;;;6.72;1.13;;;8.10;99.90;;;;;;5073123;28;20040;-71
2024/02/19 02:42:23;;;;;;;9.77;2.10;;;8.20;99.90;;;;;;5055396;28;20052;-71
2024/02/19 02:44:49;;;;;;;10.57;1.80;;;8.10;99.90;;;;;;5055547;28;20484;-71
2024/02/19 02:47:14;;;;;;;8.80;1.52;;;7.90;99.90;;;;;;5055282;28;20044;-71
2024/02/19 02:49:40;;;;;;;5.32;1.30;;;7.90;99.90;;;;;;5055423;28;20067;-71
2024/02/19 02:52:06;;;;;;;10.52;2.47;;;8.00;99.90;;;;;;5055009;28;20191;-71
2024/02/19 02:54:32;;;;;;;10.88;1.80;;;8.20;99.90;;;;;;5072798;28;20036;-71
2024/02/19 02:56:59;;;;;;;11.45;1.73;;;8.00;99.90;;;;;;5073135;28;20044;-72
2024/02/19 02:59:24;;;;;;;4.25;1.30;;;7.90;99.90;;;;;;5054943;28;20089;-72
2024/02/19 03:01:50;;;;;;;4.43;1.13;;;8.30;99.90;;;;;;5054682;28;20037;-72
2024/02/19 03:04:16;;;;;;;7.75;0.90;;;8.00;99.90;;;;;;5055153;28;20477;-72
2024/02/19 03:06:41;;;;;;;7.85;1.33;;;8.10;99.90;;;;;;5072838;28;20093;-72
2024/02/19 03:09:07;;;;;;;6.57;2.08;;;8.10;99.90;;;;;;5054772;28;20052;-72
2024/02/19 03:11:33;;;;;;;8.82;1.77;;;8.10;99.90;;;;;;5072849;28;20047;-72
2024/02/19 03:13:58;;;;;;;7.88;1.63;;;7.90;99.90;;;;;;5072853;28;20407;-72
2024/02/19 03:16:24;;;;;;;6.63;1.60;;;8.10;99.90;;;;;;5072635;28;20071;-72
2024/02/19 03:18:50;;;;;;;6.82;0.95;;;8.10;99.90;;;;;;5054638;28;20044;-72
2024/02/19 03:21:17;;;;;;;8.65;1.52;;;8.00;99.90;;;;;;5054445;28;20036;-72
2024/02/19 03:23:51;;;;;;;7.40;1.13;;;8.20;99.90;;;;;;5054391;28;20044;-72
2024/02/19 03:26:23;;;;;;;4.65;1.38;;;7.90;99.90;;;;;;5072594;28;20048;-72
2024/02/19 03:28:49;;;;;;;9.30;1.20;;;7.90;99.90;;;;;;5072430;28;20094;-72
2024/02/19 03:31:14;;;;;;;7.43;1.20;;;8.00;99.90;;;;;;5072157;28;20048;-72
2024/02/19 03:33:40;;;;;;;4.13;1.67;;;8.10;99.90;;;;;;5072180;28;20039;-72
2024/02/19 03:36:09;;;;;;;8.65;2.00;;;8.00;99.90;;;;;;5072139;28;20458;-71
2024/02/19 03:38:36;;;;;;;11.70;2.10;;;8.10;99.90;;;;;;5072710;28;20399;-72
2024/02/19 03:41:04;;;;;;;10.10;1.65;;;8.10;99.90;;;;;;5054434;28;20050;-72
2024/02/19 03:43:33;;;;;;;7.40;2.00;;;7.90;99.90;;;;;;5055066;28;20037;-72
2024/02/19 03:46:01;;;;;;;6.35;1.20;;;8.20;99.90;;;;;;5054290;28;20052;-72
2024/02/19 03:48:27;;;;;;;10.32;1.80;;;8.00;99.90;;;;;;5054141;28;20039;-72
2024/02/19 03:50:52;;;;;;;5.13;1.85;;;8.00;99.90;;;;;;5054032;28;20499;-72
2024/02/19 03:53:19;;;;;;;8.30;1.17;;;8.00;99.90;;;;;;5072081;28;20174;-72
2024/02/19 03:55:44;;;;;;;6.00;1.10;;;8.10;99.90;;;;;;5054002;28;20044;-72
2024/02/19 03:58:10;;;;;;;7.30;0.95;;;8.10;99.90;;;;;;5053899;28;20067;-72
2024/02/19 04:00:36;;;;;;;8.50;1.30;;;8.00;99.90;;;;;;5054127;28;20032;-72
2024/02/19 04:03:02;;;;;;;9.38;1.20;;;8.20;99.90;;;;;;5071800;28;20044;-72
2024/02/19 04:05:28;;;;;;;11.90;2.17;;;8.10;99.90;;;;;;5071950;28;20040;-72
2024/02/19 04:07:53;;;;;;;2.35;0.80;;;8.10;99.90;;;;;;5053873;28;20040;-71
2024/02/19 04:10:19;;;;;;;7.43;1.25;;;8.20;99.90;;;;;;5053636;28;20549;-72
2024/02/19 04:12:45;;;;;;;4.38;1.10;;;8.10;99.90;;;;;;5071748;28;20044;-72
2024/02/19 04:15:10;;;;;;;6.47;1.00;;;8.30;99.90;;;;;;5053625;28;20044;-72
2024/02/19 04:17:36;;;;;;;14.55;1.63;;;8.00;99.90;;;;;;5053657;28;20040;-72
2024/02/19 04:20:04;;;;;;;9.52;1.08;;;8.20;99.90;;;;;;5071283;28;20423;-72
2024/02/19 04:22:29;;;;;;;9.00;2.30;;;8.00;99.90;;;;;;5071729;28;20040;-72
2024/02/19 04:24:55;;;;;;;5.90;1.13;;;8.10;99.90;;;;;;5071686;28;20086;-72
2024/02/19 04:27:21;;;;;;;10.55;1.45;;;8.00;99.90;;;;;;5071685;28;20116;-72
2024/02/19 04:29:47;;;;;;;6.05;2.35;;;8.00;99.90;;;;;;5053556;28;20036;-72
2024/02/19 04:32:13;;;;;;;9.23;2.27;;;7.90;99.90;;;;;;5077745;22;20044;-79
2024/02/19 04:34:38;;;;;;;10.48;2.05;;;8.00;99.90;;;;;;5062957;28;20079;-79
2024/02/19 04:37:06;;;;;;;12.75;2.17;;;8.30;99.90;;;;;;5065906;28;20037;-79
2024/02/19 04:39:35;;;;;;;11.15;1.52;;;8.00;99.90;;;;;;5065636;28;20480;-79
2024/02/19 04:42:04;;;;;;;12.00;2.40;;;8.00;99.90;;;;;;5065798;28;20033;-79
2024/02/19 04:44:30;;;;;;;10.00;2.35;;;7.90;99.90;;;;;;5045345;28;20040;-79
2024/02/19 04:46:57;;;;;;;14.65;2.13;;;8.20;99.90;;;;;;5045755;28;20037;-79
2024/02/19 04:49:22;;;;;;;17.38;2.05;;;8.10;99.90;;;;;;5046270;28;20042;-79
2024/02/19 04:51:48;;;;;;;13.75;3.28;;;8.10;99.90;;;;;;5061781;28;20052;-79
2024/02/19 04:54:14;;;;;;;14.35;2.40;;;8.10;99.90;;;;;;5046312;28;20153;-79
2024/02/19 04:56:40;;;;;;;17.90;2.47;;;8.00;99.90;;;;;;5063599;28;20042;-79
2024/02/19 04:59:05;;;;;;;15.98;2.67;;;7.90;99.90;;;;;;5040807;28;20130;-79
2024/02/19 05:01:31;;;;;;;15.10;2.65;;;7.90;99.90;;;;;;5050413;28;20028;-79
2024/02/19 05:03:58;;;;;;;19.20;2.95;;;8.00;99.90;;;;;;5049931;28;20131;-78
2024/02/19 05:06:23;;;;;;;10.95;3.13;;;7.90;99.90;;;;;;5033565;28;20097;-79
2024/02/19 05:08:49;;;;;;;10.88;2.45;;;7.90;99.90;;;;;;5050870;28;20049;-79
2024/02/19 05:11:15;;;;;;;12.27;2.42;;;8.00;99.90;;;;;;5050014;28;20045;-79
2024/02/19 05:13:41;;;;;;;16.13;3.75;;;8.10;99.90;;;;;;5050203;28;20120;-79
2024/02/19 05:16:08;;;;;;;13.77;3.03;;;7.90;99.90;;;;;;5050930;28;20033;-79
2024/02/19 05:18:33;;;;;;;23.67;3.72;;;8.00;99.90;;;;;;5050888;28;20041;-79
2024/02/19 05:21:00;;;;;;;18.90;3.22;;;8.10;99.90;;;;;;5051260;28;20061;-79
2024/02/19 05:23:26;;;;;;;22.58;4.28;;;8.10;99.90;;;;;;5050011;28;20096;-79
2024/02/19 05:25:51;;;;;;;22.25;4.40;;;8.20;99.90;;;;;;5051036;28;20065;-79
2024/02/19 05:28:17;;;;;;;15.02;4.32;;;8.10;99.90;;;;;;5050720;28;20044;-79
2024/02/19 05:30:43;;;;;;;15.90;3.88;;;8.00;99.90;;;;;;5050544;28;20045;-79
2024/02/19 05:33:08;;;;;;;21.80;3.03;;;8.00;99.90;;;;;;5050881;28;20033;-79
2024/02/19 05:35:34;;;;;;;14.93;2.95;;;8.00;99.90;;;;;;5050089;28;20500;-79
2024/02/19 05:38:00;;;;;;;19.92;3.42;;;8.00;99.90;;;;;;5050373;28;20101;-79
2024/02/19 05:40:26;;;;;;;21.13;3.38;;;8.10;99.90;;;;;;5049632;28;20033;-79
2024/02/19 05:42:52;;;;;;;12.77;3.55;;;8.10;99.90;;;;;;5050395;28;20045;-78
2024/02/19 05:45:17;;;;;;;23.95;3.72;;;8.10;99.90;;;;;;5049584;28;20041;-79
2024/02/19 05:47:43;;;;;;;21.83;3.65;;;8.00;99.90;;;;;;5050006;28;20052;-78
2024/02/19 05:50:09;;;;;;;24.08;6.18;;;7.90;99.90;;;;;;5049502;28;20062;-78
2024/02/19 05:52:35;;;;;;;31.95;4.53;;;8.10;99.90;;;;;;5050079;28;20059;-79
2024/02/19 05:55:03;;;;;;;18.88;4.00;;;8.20;99.90;;;;;;5050464;28;20505;-79
2024/02/19 05:57:28;;;;;;;23.95;3.60;;;8.00;99.90;;;;;;5050293;28;20041;-79
2024/02/19 05:59:54;;;;;;;23.08;4.25;;;8.20;99.90;;;;;;5049674;28;20064;-79
2024/02/19 06:02:20;;;;;;;23.65;3.88;;;8.00;99.90;;;;;;5050772;28;20033;-79
2024/02/19 06:04:45;;;;;;;26.10;4.57;;;8.10;99.90;;;;;;5046336;28;20133;-78
2024/02/19 06:07:11;;;;;;;26.63;4.60;;;8.10;99.90;;;;;;5065131;28;20037;-79
2024/02/19 06:09:43;;;;;;;27.73;5.22;;;8.10;99.90;;;;;;5048494;28;20037;-79
2024/02/19 06:12:09;;;;;;;18.63;3.55;;;8.30;99.90;;;;;;5048335;28;20041;-78
2024/02/19 06:14:36;;;;;;;18.35;3.42;;;8.20;99.90;;;;;;5044008;28;20045;-77
2024/02/19 06:17:02;;;;;;;25.52;4.00;;;8.10;99.90;;;;;;5041660;28;20049;-78
2024/02/19 06:19:27;;;;;;;20.45;3.67;;;8.20;99.90;;;;;;5049189;28;20041;-78
2024/02/19 06:21:53;;;;;;;23.83;4.07;;;8.30;99.90;;;;;;5048835;28;20115;-78
2024/02/19 06:24:19;;;;;;;25.38;4.53;;;8.10;99.90;;;;;;5045840;28;20034;-78
2024/02/19 06:26:44;;;;;;;25.58;4.90;;;8.40;99.90;;;;;;5046068;28;20037;-78
2024/02/19 06:29:10;;;;;;;27.17;5.40;;;8.10;99.90;;;;;;5046514;28;20109;-77
2024/02/19 06:31:37;;;;;;;27.10;4.30;;;8.10;99.90;;;;;;5045435;28;20041;-77
2024/02/19 06:34:03;;;;;;;31.13;5.35;;;8.10;99.90;;;;;;5047911;28;20055;-78
2024/02/19 06:36:29;;;;;;;24.63;5.30;;;8.40;99.90;;;;;;5048669;28;20037;-77
2024/02/19 06:38:55;;;;;;;27.55;5.25;;;8.40;99.90;;;;;;5046172;28;20092;-78
2024/02/19 06:41:20;;;;;;;22.33;4.57;;;8.10;99.90;;;;;;5043197;28;20080;-77
2024/02/19 06:43:46;;;;;;;25.23;3.88;;;8.10;99.90;;;;;;5047250;28;20037;-78
2024/02/19 06:46:12;;;;;;;36.67;5.07;;;8.20;99.90;;;;;;5047612;28;20056;-78
2024/02/19 06:48:39;;;;;;;20.27;5.07;;;8.40;99.90;;;;;;5030258;28;20052;-78
2024/02/19 06:51:05;;;;;;;25.17;4.60;;;8.30;99.90;;;;;;5041264;28;20128;-77
2024/02/19 06:53:31;;;;;;;25.88;5.18;;;8.40;99.90;;;;;;5041528;28;20083;-75
2024/02/19 06:55:57;;;;;;;28.73;4.57;;;8.30;99.90;;;;;;5035875;28;20037;-74
2024/02/19 06:58:23;;;;;;;18.67;6.78;;;8.50;99.90;;;;;;5036838;28;20048;-74
2024/02/19 07:00:49;;;;;;;21.25;6.55;;;8.20;99.90;;;;;;5037017;28;20076;-74
2024/02/19 07:03:15;;;;;;;27.50;6.90;;;8.40;99.90;;;;;;5036135;28;20048;-74
2024/02/19 07:05:42;;;;;;;40.97;7.00;;;8.50;99.90;;;;;;5036149;28;20048;-74
2024/02/19 07:08:08;;;;;;;16.85;5.13;;;8.50;99.90;;;;;;5034753;28;20053;-74
2024/02/19 07:10:34;;;;;;;24.48;5.65;;;8.40;99.90;;;;;;5036048;28;20079;-74
2024/02/19 07:12:59;;;;;;;19.63;5.47;;;8.30;99.90;;;;;;5036211;28;20040;-74
2024/02/19 07:15:25;;;;;;;27.52;7.50;;;8.60;99.90;;;;;;5036063;28;20041;-73
2024/02/19 07:17:51;;;;;;;31.58;6.18;;;8.30;99.90;;;;;;5035887;28;20045;-73
2024/02/19 07:20:17;;;;;;;25.77;6.95;;;8.30;99.90;;;;;;5035725;28;20034;-74
2024/02/19 07:22:42;;;;;;;22.40;5.30;;;8.40;99.90;;;;;;5035300;28;20048;-74
2024/02/19 07:25:08;;;;;;;29.95;6.28;;;8.60;99.90;;;;;;5036762;28;20052;-74
2024/02/19 07:27:34;;;;;;;26.65;6.75;;;8.50;99.90;;;;;;5036732;28;20041;-74
2024/02/19 07:29:59;;;;;;;26.67;6.22;;;8.40;99.90;;;;;;5036805;28;20566;-73
2024/02/19 07:32:25;;;;;;;30.73;6.03;;;8.40;99.90;;;;;;5036546;28;20409;-74
2024/02/19 07:34:51;;;;;;;18.73;5.88;;;8.70;99.90;;;;;;5036874;28;20121;-74
2024/02/19 07:37:17;;;;;;;32.97;6.65;;;8.50;99.90;;;;;;5035530;28;20045;-74
2024/02/19 07:39:43;;;;;;;27.27;6.00;;;8.80;99.90;;;;;;5035391;28;20401;-74
2024/02/19 07:42:09;;;;;;;23.00;5.40;;;8.50;99.90;;;;;;5036325;28;20041;-73
2024/02/19 07:44:35;;;;;;;25.75;7.38;;;8.50;99.90;;;;;;5036046;28;20033;-74
2024/02/19 07:47:03;;;;;;;27.42;5.93;;;8.50;99.90;;;;;;5035111;28;20098;-74
2024/02/19 07:49:28;;;;;;;25.40;7.10;;;8.50;99.90;;;;;;5033480;28;20043;-74
2024/02/19 07:51:54;;;;;;;24.17;5.45;;;8.80;99.90;;;;;;5035144;28;20089;-73
2024/02/19 07:54:20;;;;;;;23.55;6.28;;;8.90;99.90;;;;;;5035059;28;20131;-74
2024/02/19 07:56:45;;;;;;;24.55;5.68;;;8.80;99.90;;;;;;5033984;28;20489;-74
2024/02/19 07:59:11;;;;;;;24.55;5.85;;;8.80;99.90;;;;;;5034531;28;20052;-74
2024/02/19 08:01:37;;;;;;;30.52;6.63;;;8.80;99.90;;;;;;5034974;28;20111;-73
2024/02/19 08:04:03;;;;;;;22.05;5.25;;;8.70;99.90;;;;;;5035602;28;20646;-73
2024/02/19 08:06:29;;;;;;;23.23;5.30;;;9.00;99.90;;;;;;5035319;28;20056;-74
2024/02/19 08:08:55;;;;;;;29.30;5.97;;;8.80;99.90;;;;;;5035927;28;20120;-74
2024/02/19 08:11:21;;;;;;;19.92;5.40;;;8.90;99.90;;;;;;5036724;28;20084;-74
2024/02/19 08:13:47;;;;;;;19.48;4.97;;;8.90;99.90;;;;;;5036355;28;20114;-74
2024/02/19 08:16:13;;;;;;;19.60;5.38;;;9.10;99.90;;;;;;5036309;28;20474;-74
2024/02/19 08:18:40;;;;;;;19.85;5.07;;;9.20;99.90;;;;;;5036036;28;20064;-74
2024/02/19 08:21:05;;;;;;;26.08;5.55;;;9.10;99.90;;;;;;5051385;28;20625;-74
2024/02/19 08:23:31;;;;;;;26.88;5.15;;;9.20;99.90;;;;;;5034849;28;20069;-74
2024/02/19 08:25:57;;;;;;;20.13;5.00;;;9.00;99.90;;;;;;5035575;28;20128;-74
2024/02/19 08:28:23;;;;;;;20.02;5.45;;;9.30;99.90;;;;;;5035981;28;20489;-74
2024/02/19 08:30:49;;;;;;;28.58;7.90;;;9.10;99.90;;;;;;5036063;28;20069;-74
2024/02/19 08:33:15;;;;;;;24.63;5.60;;;9.30;99.90;;;;;;5032738;28;20045;-74
2024/02/19 08:35:41;;;;;;;16.75;5.07;;;9.40;99.90;;;;;;5033974;28;20497;-74
2024/02/19 08:38:07;;;;;;;17.20;5.28;;;9.50;99.90;;;;;;5032243;28;20042;-74
2024/02/19 08:40:32;;;;;;;21.48;5.72;;;9.40;99.90;;;;;;5033992;28;20091;-74
2024/02/19 08:42:58;;;;;;;21.17;6.10;;;9.50;99.90;;;;;;5033540;28;20033;-73
2024/02/19 08:45:23;;;;;;;16.35;4.68;;;9.50;99.90;;;;;;5034211;28;20034;-73
2024/02/19 08:47:49;;;;;;;18.88;5.35;;;9.70;99.90;;;;;;5033828;28;20432;-74
2024/02/19 08:50:15;;;;;;;18.45;4.95;;;9.50;99.90;;;;;;5033892;28;20026;-73
2024/02/19 08:52:40;;;;;;;20.92;5.38;;;9.60;99.90;;;;;;5033402;28;20068;-74
2024/02/19 08:55:06;;;;;;;19.10;6.55;;;9.70;99.90;;;;;;5037035;28;20040;-74
2024/02/19 08:57:32;;;;;;;24.25;6.60;;;9.50;99.90;;;;;;5036499;28;20037;-73
2024/02/19 08:59:57;;;;;;;20.95;5.72;;;9.70;99.90;;;;;;5036874;28;20038;-74
2024/02/19 09:02:24;;;;;;;19.05;6.13;;;9.80;99.90;;;;;;5034636;28;20037;-73
2024/02/19 09:04:50;;;;;;;21.77;4.88;;;9.70;99.90;;;;;;5035690;28;20041;-74
2024/02/19 09:07:16;;;;;;;27.15;5.68;;;9.60;99.90;;;;;;5033385;28;20037;-73
2024/02/19 09:09:44;;;;;;;23.17;5.10;;;9.70;99.90;;;;;;5035702;28;20049;-74
2024/02/19 09:12:11;;;;;;;16.70;6.05;;;9.70;99.90;;;;;;5033796;28;20265;-73
2024/02/19 09:14:37;;;;;;;15.80;5.15;;;9.60;99.90;;;;;;5033793;28;20042;-73
2024/02/19 09:17:03;;;;;;;18.17;5.50;;;9.90;99.90;;;;;;5034029;28;20033;-73
2024/02/19 09:19:31;;;;;;;16.63;5.60;;;9.80;99.90;;;;;;5033620;28;20095;-73
2024/02/19 09:21:57;;;;;;;20.35;5.60;;;9.90;99.90;;;;;;5033364;28;20503;-73
2024/02/19 09:24:22;;;;;;;23.38;5.40;;;9.80;99.90;;;;;;5035667;28;20041;-73
2024/02/19 09:26:48;;;;;;;19.35;6.15;;;9.70;99.90;;;;;;5033576;28;20034;-73
2024/02/19 09:29:15;;;;;;;21.08;6.05;;;9.80;99.90;;;;;;5033543;28;20045;-74
2024/02/19 09:31:40;;;;;;;20.10;5.88;;;9.90;99.90;;;;;;5033415;28;20459;-74
2024/02/19 09:34:06;;;;;;;27.40;6.57;;;10.00;99.90;;;;;;5033783;28;20037;-73
2024/02/19 09:36:32;;;;;;;14.25;5.07;;;10.00;99.90;;;;;;5018215;28;20099;-74
2024/02/19 09:38:57;;;;;;;20.27;5.35;;;9.80;99.90;;;;;;5034197;28;20046;-74
2024/02/19 09:41:23;;;;;;;19.10;4.75;;;10.00;99.90;;;;;;5035321;28;20397;-74
2024/02/19 09:43:51;;;;;;;17.75;5.03;;;10.00;99.90;;;;;;5034684;28;20440;-73
2024/02/19 09:46:19;;;;;;;23.15;5.20;;;9.90;99.90;;;;;;5037598;28;20068;-74
2024/02/19 09:48:49;;;;;;;19.75;4.88;;;9.90;99.90;;;;;;5038417;28;20070;-74
2024/02/19 09:51:18;;;;;;;22.55;5.40;;;10.00;99.90;;;;;;5038474;28;20033;-74
2024/02/19 09:53:52;;;;;;;12.05;4.75;;;10.00;99.90;;;;;;5037957;28;20029;-74
2024/02/19 09:56:19;;;;;;;15.45;4.47;;;10.00;99.90;;;;;;5027378;28;20433;-74
2024/02/19 09:58:46;;;;;;;16.20;4.82;;;10.00;99.90;;;;;;5017096;28;20042;-74
2024/02/19 10:01:11;;;;;;;22.75;6.85;;;10.00;99.90;;;;;;5013484;28;20057;-74
2024/02/19 10:03:37;;;;;;;17.65;5.93;;;9.90;99.90;;;;;;5015020;28;20041;-74
2024/02/19 10:06:05;;;;;;;24.05;5.95;;;9.80;99.90;;;;;;5016661;28;20045;-73
2024/02/19 10:08:31;;;;;;;20.33;6.40;;;10.00;99.90;;;;;;5016960;28;20054;-74
2024/02/19 10:10:57;;;;;;;16.90;7.13;;;10.00;99.90;;;;;;5017180;28;20048;-74
2024/02/19 10:13:24;;;;;;;20.67;7.57;;;9.90;99.90;;;;;;5016829;28;20505;-74
2024/02/19 10:15:52;;;;;;;23.90;7.25;;;10.10;99.90;;;;;;4999130;28;20520;-74
2024/02/19 10:18:21;;;;;;;19.70;7.25;;;10.00;99.90;;;;;;5015361;28;20064;-74
2024/02/19 10:20:50;;;;;;;19.65;8.18;;;10.00;99.90;;;;;;5016772;28;20060;-74
2024/02/19 10:23:20;;;;;;;23.25;7.07;;;9.90;99.90;;;;;;5015462;28;20038;-74
2024/02/19 10:25:47;;;;;;;22.23;7.85;;;10.10;99.90;;;;;;5016588;28;20033;-74
2024/02/19 10:28:13;;;;;;;19.80;7.78;;;9.90;99.90;;;;;;5015197;28;20061;-74
2024/02/19 10:30:39;;;;;;;20.58;8.43;;;10.10;99.90;;;;;;5016827;28;20056;-75
2024/02/19 10:33:06;;;;;;;23.70;8.20;;;10.10;99.90;;;;;;5044671;22;20288;-72
2024/02/19 10:35:32;;;;;;;29.88;8.88;;;10.10;99.90;;;;;;5015745;28;20052;-72
2024/02/19 10:37:59;;;;;;;24.65;7.88;;;10.00;99.90;;;;;;5033356;28;20499;-71
2024/02/19 10:40:26;;;;;;;21.95;8.73;;;10.10;99.90;;;;;;5032967;28;20037;-71
2024/02/19 10:42:52;;;;;;;22.20;7.90;;;10.10;99.90;;;;;;5033040;28;20040;-71
2024/02/19 10:45:22;;;;;;;25.13;7.63;;;10.00;99.90;;;;;;5033224;28;20103;-71
2024/02/19 10:47:49;;;;;;;27.65;8.35;;;10.20;99.90;;;;;;5033090;28;20390;-71
2024/02/19 10:50:17;;;;;;;24.83;7.82;;;10.30;99.90;;;;;;5015254;28;20049;-71
2024/02/19 10:52:44;;;;;;;18.58;7.65;;;10.30;99.90;;;;;;5015762;28;20038;-71
2024/02/19 10:55:12;;;;;;;19.10;8.10;;;10.30;99.90;;;;;;5015484;28;20462;-71
2024/02/19 10:58:11;;;;;;;22.25;8.75;;;10.40;99.90;;;;;;5014931;28;20052;-71
2024/02/19 11:00:37;;;;;;;16.90;7.63;;;10.40;99.90;;;;;;5032795;28;20099;-71
2024/02/19 11:03:04;;;;;;;19.60;9.18;;;10.40;99.90;;;;;;5015453;28;20489;-71
2024/02/19 11:05:34;;;;;;;19.60;8.52;;;10.50;99.90;;;;;;5032965;28;20052;-71
2024/02/19 11:08:01;;;;;;;20.00;9.20;;;10.60;99.90;;;;;;5015006;28;20072;-71
2024/02/19 11:10:38;;;;;;;22.02;8.52;;;10.50;99.90;;;;;;5015006;28;20048;-71
2024/02/19 11:13:07;;;;;;;26.90;9.27;;;10.40;99.90;;;;;;5015050;28;20057;-71
2024/02/19 11:15:39;;;;;;;23.73;9.60;;;10.40;99.90;;;;;;5014873;28;20037;-72
2024/02/19 11:18:14;;;;;;;29.30;8.75;;;10.40;99.90;;;;;;5032681;28;20068;-71
2024/02/19 11:20:40;;;;;;;21.52;8.32;;;10.30;99.90;;;;;;5032432;28;20129;-71
2024/02/19 11:23:06;;;;;;;20.80;8.88;;;10.40;99.90;;;;;;5032767;28;20065;-71
2024/02/19 11:25:32;;;;;;;21.98;10.23;;;10.50;99.90;;;;;;5032761;28;20120;-71
2024/02/19 11:27:58;;;;;;;21.45;9.45;;;10.20;99.90;;;;;;5032551;28;20041;-71
2024/02/19 11:30:25;;;;;;;21.48;8.05;;;10.30;99.90;;;;;;5032369;28;20037;-71
2024/02/19 11:33:09;;;;;;;22.17;9.73;;;10.30;99.90;;;;;;5032167;28;20051;-72
2024/02/19 11:35:35;;;;;;;;;;;10.40;99.90;;;;;;5032938;28;20117;-72
2024/02/19 11:38:01;;;;;;;22.77;8.90;;;10.40;99.90;;;;;;5032393;28;20396;-71
2024/02/19 11:40:31;;;;;;;23.65;8.02;;;10.30;99.90;;;;;;5014637;28;20087;-71
2024/02/19 11:43:00;;;;;;;29.83;7.18;;;10.50;99.90;;;;;;5032170;28;20501;-71
2024/02/19 11:45:30;;;;;;;13.45;6.75;;;10.60;99.90;;;;;;5032135;28;20072;-71
2024/02/19 11:47:56;;;;;;;21.42;7.50;;;10.40;99.90;;;;;;5014593;28;20497;-71
2024/02/19 11:50:30;;;;;;;18.80;6.95;;;10.60;99.90;;;;;;5014283;28;20045;-71
2024/02/19 11:52:59;;;;;;;23.02;7.15;;;10.40;99.90;;;;;;5032070;28;20037;-70
2024/02/19 11:55:29;;;;;;;22.05;7.03;;;10.40;99.90;;;;;;5014154;28;20041;-71
2024/02/19 11:57:55;;;;;;;23.58;7.93;;;10.30;99.90;;;;;;5014360;28;20136;-71
2024/02/19 12:00:21;;;;;;;19.27;7.25;;;10.50;99.90;;;;;;5014070;28;20112;-71
2024/02/19 12:02:48;;;;;;;19.15;6.90;;;10.40;99.90;;;;;;5031806;28;20069;-71
2024/02/19 12:05:18;;;;;;;18.67;7.25;;;10.40;99.90;;;;;;5014205;28;20041;-71
2024/02/19 12:07:44;;;;;;;21.80;7.00;;;10.40;99.90;;;;;;5031062;28;20046;-71
2024/02/19 12:10:10;;;;;;;14.45;7.28;;;10.30;99.90;;;;;;5031710;28;20041;-71
2024/02/19 12:12:37;;;;;;;22.48;7.18;;;10.40;99.90;;;;;;5014197;28;20048;-71
2024/02/19 12:15:04;;;;;;;23.30;8.52;;;10.40;99.90;;;;;;5014178;28;20050;-71
2024/02/19 12:17:30;;;;;;;18.98;7.20;;;10.30;99.90;;;;;;5031852;28;20034;-71
2024/02/19 12:19:56;;;;;;;29.05;7.97;;;10.40;99.90;;;;;;5031662;28;20037;-72
2024/02/19 12:22:22;;;;;;;25.10;8.05;;;10.30;99.90;;;;;;5014005;28;20037;-71
2024/02/19 12:24:52;;;;;;;19.88;6.60;;;10.30;99.90;;;;;;5031627;28;20040;-71
2024/02/19 12:27:18;;;;;;;22.80;6.97;;;10.30;99.90;;;;;;5031275;28;20056;-71
2024/02/19 12:29:44;;;;;;;13.38;7.40;;;10.30;99.90;;;;;;5031455;28;20494;-71
2024/02/19 12:32:10;;;;;;;16.60;6.70;;;10.40;99.90;;;;;;5031339;28;20113;-72
2024/02/19 12:34:39;;;;;;;21.30;8.43;;;10.40;99.90;;;;;;5002269;28;20035;-71
2024/02/19 12:37:05;;;;;;;18.98;7.10;;;10.40;99.90;;;;;;5031267;28;20458;-70
2024/02/19 12:39:31;;;;;;;17.00;6.93;;;10.40;99.90;;;;;;4997240;28;20060;-71
2024/02/19 12:41:57;;;;;;;18.73;6.95;;;10.40;99.90;;;;;;5030695;28;20034;-71
2024/02/19 12:44:23;;;;;;;15.85;6.00;;;10.40;99.90;;;;;;5031089;28;20068;-71